Time;durP1;ratioP1;P1;durP2;ratioP2;P2;SDS_P1;SDS_P2;PMS_P1;PMS_P2;Temp;Humidity;BMP_temperature;BMP_pressure;BME280_temperature;BME280_humidity;BME280_pressure;Samples;Min_cycle;Max_cycle;Signal;HPM_P1;HPM_P2
2023/03/19 00:00:12;;;;;;;5.28;0.40;;;;;;;;;;5112244;28;20454;-76
2023/03/19 00:02:37;;;;;;;1.70;0.40;;;;;;;;;;5107711;28;20110;-75
2023/03/19 00:05:04;;;;;;;2.30;0.57;;;;;;;;;;5111272;28;20074;-75
2023/03/19 00:07:30;;;;;;;4.88;0.73;;;;;;;;;;5111470;28;20042;-75
2023/03/19 00:09:55;;;;;;;2.33;0.55;;;;;;;;;;5108325;28;20387;-75
2023/03/19 00:12:21;;;;;;;4.25;0.70;;;;;;;;;;5107749;28;20395;-75
2023/03/19 00:14:46;;;;;;;5.45;0.68;;;;;;;;;;5100562;28;20043;-76
2023/03/19 00:17:11;;;;;;;1.80;0.60;;;;;;;;;;5099721;28;20374;-75
2023/03/19 00:19:38;;;;;;;1.75;0.70;;;;;;;;;;5108752;28;20124;-76
2023/03/19 00:22:03;;;;;;;4.68;0.77;;;;;;;;;;5108547;28;20044;-76
2023/03/19 00:24:29;;;;;;;0.55;0.50;;;;;;;;;;5111539;28;20035;-75
2023/03/19 00:26:54;;;;;;;6.38;0.80;;;;;;;;;;5109854;28;20054;-75
2023/03/19 00:29:21;;;;;;;1.17;0.70;;;;;;;;;;5096915;28;20494;-76
2023/03/19 00:31:47;;;;;;;6.07;0.77;;;;;;;;;;5108700;28;20390;-75
2023/03/19 00:34:12;;;;;;;1.00;0.60;;;;;;;;;;5107323;28;20043;-75
2023/03/19 00:36:38;;;;;;;6.20;1.02;;;;;;;;;;5106366;28;20432;-75
2023/03/19 00:39:04;;;;;;;4.22;0.77;;;;;;;;;;5111628;28;20020;-75
2023/03/19 00:41:29;;;;;;;4.25;0.70;;;;;;;;;;5112710;28;20081;-75
2023/03/19 00:43:56;;;;;;;4.93;0.65;;;;;;;;;;5109142;28;20044;-75
2023/03/19 00:46:22;;;;;;;4.00;0.70;;;;;;;;;;5108419;28;20051;-75
2023/03/19 00:48:48;;;;;;;1.27;0.70;;;;;;;;;;5110199;28;20487;-75
2023/03/19 00:51:13;;;;;;;19.60;1.02;;;;;;;;;;5106143;28;20085;-76
2023/03/19 00:53:41;;;;;;;6.75;1.00;;;;;;;;;;5113383;28;20034;-75
2023/03/19 00:56:07;;;;;;;5.13;0.75;;;;;;;;;;5112904;28;20398;-75
2023/03/19 00:58:33;;;;;;;4.25;0.80;;;;;;;;;;5112125;28;20036;-75
2023/03/19 01:00:59;;;;;;;1.35;0.60;;;;;;;;;;5098098;28;20467;-76
2023/03/19 01:03:25;;;;;;;9.57;1.00;;;;;;;;;;5106063;28;20039;-75
2023/03/19 01:05:50;;;;;;;6.57;1.30;;;;;;;;;;5112972;28;20043;-75
2023/03/19 01:08:17;;;;;;;5.63;0.93;;;;;;;;;;5110420;28;20596;-75
2023/03/19 01:10:43;;;;;;;8.07;1.08;;;;;;;;;;5099720;28;20039;-75
2023/03/19 01:13:09;;;;;;;7.28;1.10;;;;;;;;;;5104453;28;20394;-75
2023/03/19 01:15:42;;;;;;;4.72;0.90;;;;;;;;;;5110299;28;20035;-75
2023/03/19 01:18:10;;;;;;;4.53;1.10;;;;;;;;;;5111775;28;20115;-75
2023/03/19 01:20:37;;;;;;;7.03;1.00;;;;;;;;;;5111536;28;20794;-75
2023/03/19 01:23:03;;;;;;;5.55;1.08;;;;;;;;;;5112956;28;20402;-75
2023/03/19 01:25:28;;;;;;;8.80;1.05;;;;;;;;;;5108907;28;20035;-75
2023/03/19 01:27:55;;;;;;;3.67;0.90;;;;;;;;;;5107496;28;20043;-75
2023/03/19 01:30:20;;;;;;;2.42;0.88;;;;;;;;;;5108678;28;20036;-75
2023/03/19 01:32:46;;;;;;;11.77;0.85;;;;;;;;;;5112984;28;20543;-75
2023/03/19 01:35:11;;;;;;;11.55;1.40;;;;;;;;;;5113082;28;20040;-75
2023/03/19 01:37:37;;;;;;;2.75;0.75;;;;;;;;;;5113144;28;20040;-75
2023/03/19 01:40:04;;;;;;;4.72;1.00;;;;;;;;;;5111477;28;20027;-75
2023/03/19 01:42:31;;;;;;;12.38;1.10;;;;;;;;;;5108406;28;20582;-75
2023/03/19 01:44:56;;;;;;;12.65;1.15;;;;;;;;;;5109385;28;20080;-75
2023/03/19 01:47:30;;;;;;;4.13;1.00;;;;;;;;;;5110865;28;20031;-75
2023/03/19 01:49:56;;;;;;;7.40;1.05;;;;;;;;;;5100627;28;20035;-74
2023/03/19 01:52:23;;;;;;;11.82;1.65;;;;;;;;;;5115095;28;20467;-75
2023/03/19 01:54:50;;;;;;;11.35;1.15;;;;;;;;;;5115636;28;20124;-75
2023/03/19 01:57:16;;;;;;;3.13;0.70;;;;;;;;;;5115355;28;20035;-75
2023/03/19 01:59:47;;;;;;;2.80;0.80;;;;;;;;;;5114857;28;20035;-75
2023/03/19 02:02:30;;;;;;;7.55;0.90;;;;;;;;;;5109430;28;20038;-75
2023/03/19 02:05:24;;;;;;;9.73;0.70;;;;;;;;;;5112889;28;20039;-74
2023/03/19 02:07:51;;;;;;;12.07;1.02;;;;;;;;;;5106690;28;20028;-75
2023/03/19 02:10:17;;;;;;;5.68;0.90;;;;;;;;;;5094756;28;20118;-75
2023/03/19 02:12:42;;;;;;;5.43;1.00;;;;;;;;;;5104631;28;20576;-75
2023/03/19 02:15:08;;;;;;;12.95;1.20;;;;;;;;;;5113177;28;20043;-75
2023/03/19 02:17:33;;;;;;;6.63;1.30;;;;;;;;;;5111211;28;20036;-75
2023/03/19 02:20:24;;;;;;;9.38;1.02;;;;;;;;;;5114908;28;20019;-75
2023/03/19 02:23:04;;;;;;;4.63;0.95;;;;;;;;;;5113366;28;20042;-75
2023/03/19 02:25:55;;;;;;;1.75;1.08;;;;;;;;;;5096774;28;20504;-75
2023/03/19 02:28:22;;;;;;;8.68;1.00;;;;;;;;;;5098710;28;20043;-75
2023/03/19 02:30:48;;;;;;;1.42;0.93;;;;;;;;;;5110122;28;20365;-75
2023/03/19 02:33:16;;;;;;;6.28;0.90;;;;;;;;;;5115894;28;20034;-75
2023/03/19 02:35:45;;;;;;;5.50;0.82;;;;;;;;;;5105337;28;20061;-74
2023/03/19 02:38:11;;;;;;;9.73;1.20;;;;;;;;;;5113981;28;20058;-75
2023/03/19 02:41:00;;;;;;;11.95;1.10;;;;;;;;;;5111730;28;20391;-74
2023/03/19 02:43:26;;;;;;;8.35;0.95;;;;;;;;;;5114389;28;20552;-74
2023/03/19 02:45:52;;;;;;;12.43;1.13;;;;;;;;;;5110267;28;20035;-74
2023/03/19 02:48:18;;;;;;;6.55;1.20;;;;;;;;;;5101144;28;20068;-75
2023/03/19 02:50:44;;;;;;;4.03;0.90;;;;;;;;;;5114327;28;20031;-74
2023/03/19 02:53:09;;;;;;;3.45;1.27;;;;;;;;;;5114077;28;20032;-74
2023/03/19 02:55:35;;;;;;;7.00;1.15;;;;;;;;;;5110918;28;20464;-74
2023/03/19 02:58:01;;;;;;;2.65;0.80;;;;;;;;;;5114502;28;20086;-74
2023/03/19 03:00:27;;;;;;;8.45;1.42;;;;;;;;;;5110744;28;20093;-74
2023/03/19 03:02:53;;;;;;;14.23;1.00;;;;;;;;;;5115171;28;20024;-74
2023/03/19 03:05:20;;;;;;;3.65;1.00;;;;;;;;;;5105466;28;20387;-74
2023/03/19 03:07:45;;;;;;;6.68;1.15;;;;;;;;;;5104809;28;20032;-74
2023/03/19 03:10:11;;;;;;;6.95;1.20;;;;;;;;;;5115452;28;20485;-74
2023/03/19 03:12:37;;;;;;;8.45;0.95;;;;;;;;;;5108039;27;20510;-75
2023/03/19 03:15:04;;;;;;;11.50;1.30;;;;;;;;;;5110271;28;20031;-74
2023/03/19 03:17:30;;;;;;;5.78;1.08;;;;;;;;;;5107447;28;20035;-74
2023/03/19 03:19:55;;;;;;;4.93;1.00;;;;;;;;;;5103350;28;20511;-74
2023/03/19 03:22:22;;;;;;;6.95;1.00;;;;;;;;;;5104374;28;20024;-74
2023/03/19 03:24:47;;;;;;;5.28;1.05;;;;;;;;;;5114093;28;20164;-74
2023/03/19 03:27:12;;;;;;;7.63;1.45;;;;;;;;;;5115024;28;20178;-75
2023/03/19 03:29:38;;;;;;;6.50;1.00;;;;;;;;;;5114689;28;20424;-75
2023/03/19 03:32:04;;;;;;;3.95;1.00;;;;;;;;;;5112893;28;20423;-75
2023/03/19 03:34:29;;;;;;;5.30;1.70;;;;;;;;;;5113307;28;20036;-74
2023/03/19 03:36:55;;;;;;;4.30;1.05;;;;;;;;;;5103740;28;20036;-74
2023/03/19 03:39:20;;;;;;;9.70;1.48;;;;;;;;;;5112007;28;20104;-74
2023/03/19 03:41:46;;;;;;;5.22;1.63;;;;;;;;;;5100970;28;20067;-74
2023/03/19 03:44:12;;;;;;;5.63;1.67;;;;;;;;;;5107006;28;20065;-74
2023/03/19 03:46:37;;;;;;;4.50;1.17;;;;;;;;;;5112769;28;20027;-74
2023/03/19 03:49:03;;;;;;;6.65;1.45;;;;;;;;;;5101930;28;20377;-74
2023/03/19 03:51:28;;;;;;;5.43;1.50;;;;;;;;;;5113897;28;20030;-74
2023/03/19 03:53:54;;;;;;;15.65;1.35;;;;;;;;;;5107606;28;20536;-74
2023/03/19 03:56:19;;;;;;;6.95;1.33;;;;;;;;;;5113426;28;20043;-74
2023/03/19 03:58:45;;;;;;;7.72;1.15;;;;;;;;;;5101581;28;20020;-73
2023/03/19 04:01:14;;;;;;;4.45;1.10;;;;;;;;;;5114151;28;20031;-74
2023/03/19 04:03:40;;;;;;;14.32;1.33;;;;;;;;;;5102565;28;20032;-74
2023/03/19 04:06:05;;;;;;;7.43;2.10;;;;;;;;;;5107050;28;20089;-74
2023/03/19 04:08:31;;;;;;;11.75;1.90;;;;;;;;;;5114307;27;20047;-74
2023/03/19 04:10:57;;;;;;;6.88;1.40;;;;;;;;;;5112396;28;20031;-74
2023/03/19 04:13:22;;;;;;;1.95;0.80;;;;;;;;;;5099607;28;20455;-74
2023/03/19 04:15:48;;;;;;;10.32;1.70;;;;;;;;;;5109690;28;20039;-74
2023/03/19 04:18:13;;;;;;;4.68;0.95;;;;;;;;;;5102388;28;20051;-74
2023/03/19 04:20:40;;;;;;;3.40;0.90;;;;;;;;;;5113734;28;20031;-74
2023/03/19 04:23:05;;;;;;;5.85;0.75;;;;;;;;;;5111066;28;20076;-74
2023/03/19 04:25:31;;;;;;;7.60;1.30;;;;;;;;;;5110476;28;20051;-74
2023/03/19 04:27:57;;;;;;;9.63;1.60;;;;;;;;;;5105930;28;20051;-74
2023/03/19 04:30:23;;;;;;;13.23;1.55;;;;;;;;;;5107656;28;20041;-74
2023/03/19 04:32:49;;;;;;;5.15;1.27;;;;;;;;;;5113579;28;20036;-74
2023/03/19 04:35:14;;;;;;;1.75;1.10;;;;;;;;;;5113884;28;20035;-74
2023/03/19 04:37:40;;;;;;;9.75;1.23;;;;;;;;;;5108729;28;20031;-74
2023/03/19 04:40:06;;;;;;;6.20;1.23;;;;;;;;;;5112477;28;20043;-74
2023/03/19 04:42:32;;;;;;;5.60;1.80;;;;;;;;;;5113140;28;20027;-73
2023/03/19 04:44:57;;;;;;;8.25;1.52;;;;;;;;;;5112881;28;20035;-74
2023/03/19 04:47:23;;;;;;;13.45;1.40;;;;;;;;;;5108431;28;20028;-73
2023/03/19 04:49:48;;;;;;;5.05;1.58;;;;;;;;;;5105120;28;20047;-74
2023/03/19 04:52:13;;;;;;;3.15;1.08;;;;;;;;;;5099684;28;20112;-74
2023/03/19 04:54:39;;;;;;;8.18;1.33;;;;;;;;;;5104773;28;20043;-74
2023/03/19 04:57:05;;;;;;;3.67;1.75;;;;;;;;;;5113058;28;20115;-74
2023/03/19 04:59:30;;;;;;;12.25;1.70;;;;;;;;;;5112161;28;20035;-73
2023/03/19 05:01:56;;;;;;;7.80;1.42;;;;;;;;;;5095586;28;20047;-74
2023/03/19 05:04:22;;;;;;;3.70;1.38;;;;;;;;;;5096821;28;20040;-74
2023/03/19 05:06:49;;;;;;;7.18;1.63;;;;;;;;;;5107551;28;20035;-73
2023/03/19 05:09:14;;;;;;;6.18;1.30;;;;;;;;;;5112105;28;20494;-73
2023/03/19 05:11:40;;;;;;;5.28;1.30;;;;;;;;;;5110048;28;20032;-74
2023/03/19 05:14:05;;;;;;;4.95;0.85;;;;;;;;;;5106220;28;20076;-74
2023/03/19 05:16:31;;;;;;;26.30;1.63;;;;;;;;;;5108913;28;20115;-74
2023/03/19 05:18:57;;;;;;;2.45;1.00;;;;;;;;;;5113350;28;20042;-74
2023/03/19 05:21:22;;;;;;;3.60;1.25;;;;;;;;;;5112999;28;20034;-73
2023/03/19 05:23:51;;;;;;;6.15;1.08;;;;;;;;;;5110509;28;20031;-73
2023/03/19 05:26:17;;;;;;;10.23;1.60;;;;;;;;;;5105321;28;20491;-74
2023/03/19 05:28:43;;;;;;;6.10;1.77;;;;;;;;;;5100999;28;20055;-73
2023/03/19 05:31:08;;;;;;;11.10;1.15;;;;;;;;;;5107431;28;20498;-74
2023/03/19 05:33:34;;;;;;;8.25;1.70;;;;;;;;;;5102624;28;20019;-74
2023/03/19 05:35:59;;;;;;;6.15;1.10;;;;;;;;;;5117203;28;20463;-74
2023/03/19 05:38:25;;;;;;;7.63;1.38;;;;;;;;;;5117032;28;20032;-74
2023/03/19 05:40:51;;;;;;;12.15;1.55;;;;;;;;;;5116972;28;20114;-74
2023/03/19 05:43:16;;;;;;;2.53;0.95;;;;;;;;;;5115033;28;20039;-74
2023/03/19 05:45:42;;;;;;;8.93;1.20;;;;;;;;;;5115638;28;20399;-73
2023/03/19 05:48:07;;;;;;;2.33;1.20;;;;;;;;;;5107903;28;20024;-73
2023/03/19 05:50:33;;;;;;;4.65;0.90;;;;;;;;;;5116713;28;20467;-74
2023/03/19 05:52:58;;;;;;;10.38;1.65;;;;;;;;;;5109213;28;20027;-74
2023/03/19 05:55:24;;;;;;;5.80;1.30;;;;;;;;;;5117191;28;20460;-74
2023/03/19 05:57:50;;;;;;;7.97;0.77;;;;;;;;;;5106101;28;20447;-73
2023/03/19 06:00:16;;;;;;;18.13;1.95;;;;;;;;;;5116185;28;20105;-74
2023/03/19 06:02:42;;;;;;;13.48;1.48;;;;;;;;;;5112741;28;20071;-74
2023/03/19 06:05:09;;;;;;;2.13;0.88;;;;;;;;;;5115796;28;20046;-73
2023/03/19 06:07:35;;;;;;;10.23;1.92;;;;;;;;;;5110124;28;20043;-73
2023/03/19 06:10:00;;;;;;;3.38;0.85;;;;;;;;;;5116395;28;20024;-74
2023/03/19 06:12:26;;;;;;;7.40;1.15;;;;;;;;;;5109196;28;20039;-73
2023/03/19 06:14:51;;;;;;;5.32;1.38;;;;;;;;;;5116387;28;20138;-74
2023/03/19 06:17:17;;;;;;;10.23;1.55;;;;;;;;;;5115129;28;20035;-74
2023/03/19 06:19:42;;;;;;;7.68;1.10;;;;;;;;;;5116141;27;20118;-74
2023/03/19 06:22:08;;;;;;;11.85;1.92;;;;;;;;;;5115386;28;20107;-74
2023/03/19 06:24:33;;;;;;;7.30;1.10;;;;;;;;;;5115772;28;20036;-73
2023/03/19 06:26:59;;;;;;;2.00;1.15;;;;;;;;;;5115761;28;20039;-73
2023/03/19 06:29:25;;;;;;;12.88;1.70;;;;;;;;;;5114958;28;20035;-74
2023/03/19 06:31:51;;;;;;;8.48;0.93;;;;;;;;;;5112174;28;20032;-73
2023/03/19 06:34:17;;;;;;;6.82;1.30;;;;;;;;;;5112962;28;20032;-74
2023/03/19 06:36:42;;;;;;;4.55;1.00;;;;;;;;;;5114376;28;20050;-74
2023/03/19 06:39:08;;;;;;;1.58;0.75;;;;;;;;;;5110334;28;20034;-73
2023/03/19 06:41:33;;;;;;;16.63;1.30;;;;;;;;;;5115748;28;20031;-73
2023/03/19 06:43:59;;;;;;;9.30;1.42;;;;;;;;;;5116078;28;20118;-73
2023/03/19 06:46:24;;;;;;;5.60;0.98;;;;;;;;;;5115375;28;20024;-74
2023/03/19 06:48:50;;;;;;;3.55;0.90;;;;;;;;;;5113307;28;20055;-74
2023/03/19 06:51:16;;;;;;;8.00;1.25;;;;;;;;;;5114279;28;20028;-74
2023/03/19 06:53:41;;;;;;;12.82;1.30;;;;;;;;;;5111070;28;20035;-74
2023/03/19 06:56:07;;;;;;;8.65;1.70;;;;;;;;;;5115056;28;20442;-74
2023/03/19 06:58:34;;;;;;;14.07;1.23;;;;;;;;;;5112619;28;20038;-75
2023/03/19 07:00:59;;;;;;;10.40;1.27;;;;;;;;;;5107815;28;20483;-75
2023/03/19 07:03:25;;;;;;;12.00;1.10;;;;;;;;;;5111289;28;20035;-75
2023/03/19 07:05:50;;;;;;;18.35;1.73;;;;;;;;;;5115688;27;20043;-75
2023/03/19 07:08:16;;;;;;;50.78;2.67;;;;;;;;;;5115149;28;20030;-75
2023/03/19 07:10:42;;;;;;;174.57;7.60;;;;;;;;;;5113114;28;20097;-75
2023/03/19 07:13:07;;;;;;;266.95;11.70;;;;;;;;;;5114935;27;20389;-76
2023/03/19 07:15:33;;;;;;;343.77;12.73;;;;;;;;;;5114828;28;20024;-76
2023/03/19 07:17:59;;;;;;;592.75;23.33;;;;;;;;;;5115135;28;20036;-75
2023/03/19 07:20:24;;;;;;;506.48;19.45;;;;;;;;;;5115059;28;20500;-75
2023/03/19 07:22:50;;;;;;;498.33;19.17;;;;;;;;;;5108389;28;20055;-75
2023/03/19 07:25:16;;;;;;;368.83;16.33;;;;;;;;;;5114770;28;20031;-76
2023/03/19 07:27:41;;;;;;;169.75;7.25;;;;;;;;;;5114367;28;20039;-76
2023/03/19 07:30:07;;;;;;;138.20;5.35;;;;;;;;;;5113812;28;20032;-75
2023/03/19 07:32:33;;;;;;;10.07;1.58;;;;;;;;;;5107313;28;20475;-76
2023/03/19 07:34:58;;;;;;;16.17;1.48;;;;;;;;;;5106300;28;20063;-75
2023/03/19 07:37:24;;;;;;;6.95;1.52;;;;;;;;;;5109488;28;20024;-76
2023/03/19 07:39:50;;;;;;;6.43;1.40;;;;;;;;;;5110834;28;20032;-76
2023/03/19 07:42:15;;;;;;;5.28;1.10;;;;;;;;;;5114584;28;20039;-76
2023/03/19 07:44:40;;;;;;;6.20;1.40;;;;;;;;;;5114605;28;20118;-76
2023/03/19 07:47:06;;;;;;;4.72;1.20;;;;;;;;;;5113884;28;20032;-76
2023/03/19 07:49:31;;;;;;;7.20;1.23;;;;;;;;;;5114658;28;20059;-76
2023/03/19 07:51:57;;;;;;;6.35;1.50;;;;;;;;;;5111867;28;20035;-76
2023/03/19 07:54:22;;;;;;;6.90;1.27;;;;;;;;;;5109207;28;20046;-76
2023/03/19 07:56:48;;;;;;;5.00;1.50;;;;;;;;;;5113927;28;20039;-77
2023/03/19 07:59:13;;;;;;;7.65;1.40;;;;;;;;;;5114392;28;20069;-77
2023/03/19 08:01:39;;;;;;;5.03;1.63;;;;;;;;;;5113426;28;20026;-76
2023/03/19 08:04:04;;;;;;;6.65;1.65;;;;;;;;;;5114388;28;20043;-77
2023/03/19 08:06:29;;;;;;;7.50;1.98;;;;;;;;;;5114121;28;20034;-77
2023/03/19 08:08:55;;;;;;;5.63;1.60;;;;;;;;;;5106614;28;20051;-77
2023/03/19 08:11:21;;;;;;;6.93;1.65;;;;;;;;;;5114030;28;20490;-77
2023/03/19 08:13:46;;;;;;;9.15;1.92;;;;;;;;;;5110746;28;20035;-77
2023/03/19 08:16:12;;;;;;;9.43;1.67;;;;;;;;;;5113742;28;20033;-77
2023/03/19 08:18:37;;;;;;;6.32;1.95;;;;;;;;;;5107566;28;20080;-76
2023/03/19 08:21:03;;;;;;;7.97;1.58;;;;;;;;;;5097762;28;20047;-76
2023/03/19 08:23:29;;;;;;;10.65;1.75;;;;;;;;;;5107688;28;20107;-76
2023/03/19 08:25:55;;;;;;;8.45;1.70;;;;;;;;;;5112650;28;20059;-76
2023/03/19 08:28:21;;;;;;;7.80;1.70;;;;;;;;;;5106461;28;20126;-76
2023/03/19 08:30:47;;;;;;;9.95;1.90;;;;;;;;;;5101919;28;20542;-76
2023/03/19 08:33:13;;;;;;;10.65;2.00;;;;;;;;;;5111385;28;20067;-76
2023/03/19 08:35:38;;;;;;;10.32;1.90;;;;;;;;;;5112896;28;20051;-76
2023/03/19 08:38:04;;;;;;;8.07;1.52;;;;;;;;;;5099744;28;20031;-76
2023/03/19 08:40:29;;;;;;;10.13;2.00;;;;;;;;;;5113914;28;20189;-74
2023/03/19 08:42:55;;;;;;;8.73;2.10;;;;;;;;;;5081179;28;20036;-76
2023/03/19 08:45:21;;;;;;;8.35;1.95;;;;;;;;;;5113347;28;20035;-75
2023/03/19 08:47:47;;;;;;;10.60;2.40;;;;;;;;;;5112998;28;20044;-76
2023/03/19 08:50:12;;;;;;;6.00;1.50;;;;;;;;;;5104895;28;20073;-76
2023/03/19 08:52:38;;;;;;;9.20;2.67;;;;;;;;;;5110127;28;20024;-76
2023/03/19 08:55:04;;;;;;;5.25;1.70;;;;;;;;;;5104072;28;20052;-75
2023/03/19 08:57:31;;;;;;;8.93;2.03;;;;;;;;;;5112008;28;20028;-76
2023/03/19 08:59:56;;;;;;;7.88;2.08;;;;;;;;;;5102463;28;20085;-76
2023/03/19 09:02:22;;;;;;;13.65;2.60;;;;;;;;;;5109041;28;20039;-76
2023/03/19 09:04:47;;;;;;;8.38;1.80;;;;;;;;;;5113251;28;20039;-76
2023/03/19 09:07:14;;;;;;;8.27;1.77;;;;;;;;;;5107844;28;20032;-76
2023/03/19 09:09:41;;;;;;;7.13;2.08;;;;;;;;;;5102731;28;20043;-76
2023/03/19 09:12:07;;;;;;;10.05;2.17;;;;;;;;;;5108506;28;20063;-76
2023/03/19 09:14:33;;;;;;;7.03;1.83;;;;;;;;;;5106415;28;20123;-76
2023/03/19 09:16:59;;;;;;;10.10;2.15;;;;;;;;;;5109938;28;20036;-76
2023/03/19 09:19:24;;;;;;;9.32;2.25;;;;;;;;;;5105256;28;20028;-76
2023/03/19 09:21:50;;;;;;;5.93;1.70;;;;;;;;;;5102802;28;20035;-76
2023/03/19 09:24:16;;;;;;;7.28;1.90;;;;;;;;;;5110607;28;20031;-76
2023/03/19 09:26:41;;;;;;;6.93;1.80;;;;;;;;;;5108451;28;20028;-76
2023/03/19 09:29:07;;;;;;;10.20;1.92;;;;;;;;;;5105868;28;20091;-76
2023/03/19 09:31:33;;;;;;;9.57;2.00;;;;;;;;;;5099913;28;20048;-76
2023/03/19 09:33:58;;;;;;;7.63;1.98;;;;;;;;;;5095040;28;20448;-76
2023/03/19 09:36:25;;;;;;;9.27;1.92;;;;;;;;;;5109068;28;20124;-76
2023/03/19 09:38:50;;;;;;;8.80;1.50;;;;;;;;;;5106178;28;20478;-76
2023/03/19 09:41:42;;;;;;;9.57;1.70;;;;;;;;;;5110077;28;20062;-76
2023/03/19 09:44:20;;;;;;;8.88;1.73;;;;;;;;;;5105961;28;20490;-76
2023/03/19 09:47:03;;;;;;;11.10;1.85;;;;;;;;;;5092945;28;20046;-76
2023/03/19 09:49:31;;;;;;;7.43;1.75;;;;;;;;;;5096088;28;20040;-76
2023/03/19 09:52:28;;;;;;;5.93;1.35;;;;;;;;;;5090984;28;20391;-76
2023/03/19 09:54:55;;;;;;;5.65;1.60;;;;;;;;;;5108877;28;20127;-77
2023/03/19 09:57:21;;;;;;;6.55;1.45;;;;;;;;;;5106793;28;20093;-76
2023/03/19 09:59:48;;;;;;;5.93;1.30;;;;;;;;;;5106726;28;20047;-76
2023/03/19 10:02:28;;;;;;;7.13;1.17;;;;;;;;;;5104105;28;20425;-75
2023/03/19 10:05:00;;;;;;;8.05;2.28;;;;;;;;;;5108869;28;20027;-76
2023/03/19 10:07:44;;;;;;;9.02;1.23;;;;;;;;;;5108496;28;20046;-76
2023/03/19 10:10:26;;;;;;;6.28;1.10;;;;;;;;;;5101435;28;20081;-76
2023/03/19 10:13:08;;;;;;;9.82;2.85;;;;;;;;;;5096533;28;20089;-76
2023/03/19 10:15:35;;;;;;;7.30;2.28;;;;;;;;;;5111998;28;20043;-76
2023/03/19 10:18:08;;;;;;;12.30;2.60;;;;;;;;;;5111278;28;20042;-76
2023/03/19 10:20:55;;;;;;;6.40;1.30;;;;;;;;;;5100679;28;20028;-76
2023/03/19 10:23:30;;;;;;;6.53;1.40;;;;;;;;;;5099591;28;20037;-75
2023/03/19 10:25:57;;;;;;;5.93;1.33;;;;;;;;;;5097932;28;20062;-76
2023/03/19 10:28:26;;;;;;;6.70;1.83;;;;;;;;;;5107914;28;20040;-76
2023/03/19 10:31:04;;;;;;;4.53;1.10;;;;;;;;;;5102489;28;20475;-76
2023/03/19 10:33:56;;;;;;;6.47;0.90;;;;;;;;;;5102168;28;20479;-77
2023/03/19 10:36:26;;;;;;;4.55;0.70;;;;;;;;;;5100778;28;20048;-76
2023/03/19 10:38:52;;;;;;;3.58;1.00;;;;;;;;;;5110613;28;20242;-76
2023/03/19 10:41:46;;;;;;;1.98;0.65;;;;;;;;;;5110741;28;20475;-77
2023/03/19 10:44:29;;;;;;;4.40;0.85;;;;;;;;;;5102385;28;20115;-76
2023/03/19 10:46:57;;;;;;;4.35;1.27;;;;;;;;;;5107670;28;20038;-76
2023/03/19 10:49:23;;;;;;;3.67;1.10;;;;;;;;;;5107533;28;20036;-77
2023/03/19 10:51:48;;;;;;;4.15;1.20;;;;;;;;;;5107435;28;20050;-76
2023/03/19 10:54:25;;;;;;;5.20;1.00;;;;;;;;;;5101019;28;20048;-77
2023/03/19 10:56:54;;;;;;;5.40;1.63;;;;;;;;;;5110659;28;20031;-76
2023/03/19 10:59:30;;;;;;;8.80;1.75;;;;;;;;;;5108013;28;20059;-77
2023/03/19 11:01:57;;;;;;;4.55;1.48;;;;;;;;;;5110652;28;20081;-76
2023/03/19 11:04:24;;;;;;;69.55;16.98;;;;;;;;;;5111848;28;20123;-76
2023/03/19 11:06:51;;;;;;;13.43;3.10;;;;;;;;;;5109381;28;20035;-77
2023/03/19 11:09:38;;;;;;;17.85;5.63;;;;;;;;;;5108627;28;20509;-77
2023/03/19 11:12:07;;;;;;;5.53;1.10;;;;;;;;;;5110656;28;20040;-76
2023/03/19 11:14:38;;;;;;;7.70;1.30;;;;;;;;;;5098039;28;20137;-76
2023/03/19 11:17:19;;;;;;;7.05;1.08;;;;;;;;;;5105321;28;20035;-76
2023/03/19 11:19:51;;;;;;;5.68;0.90;;;;;;;;;;5107452;28;20078;-76
2023/03/19 11:22:30;;;;;;;4.00;1.10;;;;;;;;;;5102836;28;20050;-76
2023/03/19 11:25:02;;;;;;;4.97;0.88;;;;;;;;;;5109870;28;20054;-77
2023/03/19 11:27:28;;;;;;;5.20;1.05;;;;;;;;;;5110352;28;20044;-75
2023/03/19 11:29:54;;;;;;;5.03;1.02;;;;;;;;;;5105706;28;21000;-77
2023/03/19 11:32:36;;;;;;;4.43;0.90;;;;;;;;;;5103469;28;20115;-78
2023/03/19 11:35:10;;;;;;;4.72;1.02;;;;;;;;;;5106667;28;20084;-76
2023/03/19 11:37:55;;;;;;;5.75;0.88;;;;;;;;;;5107108;28;20039;-77
2023/03/19 11:40:54;;;;;;;4.15;1.17;;;;;;;;;;5084043;28;20048;-77
2023/03/19 11:43:39;;;;;;;5.05;1.35;;;;;;;;;;5103562;28;20050;-76
2023/03/19 11:46:12;;;;;;;6.78;1.20;;;;;;;;;;5092841;28;20540;-76
2023/03/19 11:48:44;;;;;;;3.40;1.27;;;;;;;;;;5104684;28;20122;-76
2023/03/19 11:51:18;;;;;;;1.38;0.70;;;;;;;;;;5103460;28;20031;-76
2023/03/19 11:54:08;;;;;;;6.63;1.00;;;;;;;;;;5106103;28;20039;-76
2023/03/19 11:56:46;;;;;;;3.83;1.02;;;;;;;;;;5107142;28;20120;-76
2023/03/19 11:59:49;;;;;;;6.40;0.95;;;;;;;;;;5107089;28;20073;-76
2023/03/19 12:02:27;;;;;;;3.92;1.05;;;;;;;;;;5106740;28;20060;-76
2023/03/19 12:05:04;;;;;;;3.83;0.90;;;;;;;;;;5103123;28;20394;-77
2023/03/19 12:07:42;;;;;;;4.05;0.93;;;;;;;;;;5107754;28;20096;-76
2023/03/19 12:10:32;;;;;;;7.05;1.02;;;;;;;;;;5107271;28;20502;-76
2023/03/19 12:13:03;;;;;;;4.43;0.88;;;;;;;;;;5107331;28;20042;-75
2023/03/19 12:15:41;;;;;;;4.78;1.10;;;;;;;;;;5109144;28;20040;-76
2023/03/19 12:18:22;;;;;;;6.75;1.33;;;;;;;;;;5109935;28;20118;-76
2023/03/19 12:21:06;;;;;;;3.85;1.13;;;;;;;;;;5108547;28;20044;-76
2023/03/19 12:24:01;;;;;;;3.42;1.10;;;;;;;;;;5110007;28;20075;-76
2023/03/19 12:26:39;;;;;;;4.50;1.00;;;;;;;;;;5112324;28;20039;-75
2023/03/19 12:29:22;;;;;;;3.63;1.27;;;;;;;;;;5113105;28;20110;-75
2023/03/19 12:32:06;;;;;;;4.82;1.05;;;;;;;;;;5104524;28;20544;-75
2023/03/19 12:34:56;;;;;;;5.45;1.10;;;;;;;;;;5109565;28;20063;-75
2023/03/19 12:37:45;;;;;;;10.32;1.58;;;;;;;;;;5109459;28;20086;-75
2023/03/19 12:40:29;;;;;;;7.18;1.20;;;;;;;;;;5112335;28;20068;-75
2023/03/19 12:43:02;;;;;;;5.97;1.83;;;;;;;;;;5111266;28;20382;-75
2023/03/19 12:45:37;;;;;;;6.47;1.38;;;;;;;;;;5107975;28;20031;-75
2023/03/19 12:48:18;;;;;;;7.97;1.67;;;;;;;;;;5108374;28;20039;-75
2023/03/19 12:50:48;;;;;;;9.35;1.20;;;;;;;;;;5110563;28;20050;-75
2023/03/19 12:53:44;;;;;;;7.30;1.30;;;;;;;;;;5111035;28;20044;-75
2023/03/19 12:56:19;;;;;;;6.25;1.25;;;;;;;;;;5105688;28;20498;-75
2023/03/19 12:58:44;;;;;;;3.28;0.98;;;;;;;;;;5111309;28;20037;-75
2023/03/19 13:01:13;;;;;;;7.50;1.33;;;;;;;;;;5112821;28;20036;-75
2023/03/19 13:04:19;;;;;;;4.50;1.00;;;;;;;;;;5107524;28;20035;-74
2023/03/19 13:06:51;;;;;;;9.05;1.80;;;;;;;;;;5106822;28;20081;-76
2023/03/19 13:09:31;;;;;;;6.72;1.30;;;;;;;;;;5109051;28;20043;-75
2023/03/19 13:12:06;;;;;;;3.55;1.00;;;;;;;;;;5104677;28;20045;-76
2023/03/19 13:14:47;;;;;;;5.38;1.48;;;;;;;;;;5102231;28;20036;-75
2023/03/19 13:17:31;;;;;;;6.72;1.30;;;;;;;;;;5106228;28;20404;-76
2023/03/19 13:20:16;;;;;;;8.88;1.15;;;;;;;;;;5112745;28;20032;-75
2023/03/19 13:22:55;;;;;;;4.18;0.90;;;;;;;;;;5108624;28;20111;-75
2023/03/19 13:25:30;;;;;;;4.65;1.08;;;;;;;;;;5111321;28;20119;-75
2023/03/19 13:27:55;;;;;;;6.07;1.20;;;;;;;;;;5101854;28;20047;-76
2023/03/19 13:30:22;;;;;;;4.57;1.08;;;;;;;;;;5102911;28;20359;-75
2023/03/19 13:32:50;;;;;;;5.18;0.93;;;;;;;;;;5095522;28;20100;-75
2023/03/19 13:35:39;;;;;;;5.00;1.30;;;;;;;;;;5102838;28;20060;-76
2023/03/19 13:38:10;;;;;;;5.20;1.08;;;;;;;;;;5103164;28;20042;-75
2023/03/19 13:40:39;;;;;;;7.93;1.05;;;;;;;;;;5102382;28;20105;-78
2023/03/19 13:43:40;;;;;;;2.55;0.82;;;;;;;;;;5103528;28;20043;-75
2023/03/19 13:46:12;;;;;;;3.83;0.82;;;;;;;;;;5102971;28;20031;-76
2023/03/19 13:48:48;;;;;;;5.75;0.88;;;;;;;;;;5110262;28;20042;-75
2023/03/19 13:51:17;;;;;;;9.30;1.40;;;;;;;;;;5092163;28;20120;-76
2023/03/19 13:53:53;;;;;;;5.93;1.10;;;;;;;;;;5106571;28;20032;-75
2023/03/19 13:56:19;;;;;;;8.02;1.20;;;;;;;;;;5107926;28;20093;-76
2023/03/19 13:59:12;;;;;;;5.60;1.02;;;;;;;;;;5110066;28;20375;-76
2023/03/19 14:01:39;;;;;;;3.72;1.13;;;;;;;;;;5110089;28;20036;-76
2023/03/19 14:04:14;;;;;;;9.35;1.00;;;;;;;;;;5110637;28;20110;-75
2023/03/19 14:06:44;;;;;;;5.13;0.93;;;;;;;;;;5110321;28;20032;-76
2023/03/19 14:09:30;;;;;;;3.05;1.02;;;;;;;;;;5108711;28;20051;-75
2023/03/19 14:12:16;;;;;;;6.03;0.85;;;;;;;;;;5106775;28;20092;-76
2023/03/19 14:14:59;;;;;;;5.22;1.95;;;;;;;;;;5115271;28;20042;-75
2023/03/19 14:17:34;;;;;;;5.45;0.98;;;;;;;;;;5113611;28;20044;-75
2023/03/19 14:20:23;;;;;;;3.80;1.05;;;;;;;;;;5103915;28;20035;-75
2023/03/19 14:22:55;;;;;;;6.78;1.73;;;;;;;;;;5115411;28;20039;-75
2023/03/19 14:25:26;;;;;;;5.63;1.00;;;;;;;;;;5115028;28;20031;-75
2023/03/19 14:27:58;;;;;;;6.80;1.40;;;;;;;;;;5101343;28;20638;-75
2023/03/19 14:30:23;;;;;;;5.65;1.02;;;;;;;;;;5098969;28;20040;-75
2023/03/19 14:32:50;;;;;;;3.67;1.40;;;;;;;;;;5105480;28;20042;-75
2023/03/19 14:35:19;;;;;;;5.85;1.05;;;;;;;;;;5103324;28;20463;-75
2023/03/19 14:37:49;;;;;;;3.33;1.13;;;;;;;;;;5111889;28;20035;-75
2023/03/19 14:40:18;;;;;;;6.75;1.40;;;;;;;;;;5116050;28;20139;-75
2023/03/19 14:43:01;;;;;;;5.65;1.23;;;;;;;;;;5115128;28;20042;-75
2023/03/19 14:45:39;;;;;;;4.53;1.40;;;;;;;;;;5113544;28;20245;-75
2023/03/19 14:48:20;;;;;;;7.45;1.23;;;;;;;;;;5107320;28;20122;-75
2023/03/19 14:51:11;;;;;;;4.28;1.20;;;;;;;;;;5105850;28;20032;-75
2023/03/19 14:53:40;;;;;;;6.18;1.27;;;;;;;;;;5068394;28;20036;-75
2023/03/19 14:56:15;;;;;;;5.32;1.23;;;;;;;;;;5114009;28;20122;-76